Time;durP1;ratioP1;P1;durP2;ratioP2;P2;SDS_P1;SDS_P2;PMS_P1;PMS_P2;Temp;Humidity;BMP_temperature;BMP_pressure;BME280_temperature;BME280_humidity;BME280_pressure;Samples;Min_cycle;Max_cycle;Signal;HPM_P1;HPM_P2
2022/11/21 13:43:25;;;;;;;16.40;3.95;;;;;;;7.17;97.56;99683.63;5089227;22;20691;-80
2022/11/21 13:45:56;;;;;;;12.07;3.15;;;;;;;7.15;94.82;99685.56;5084797;28;20048;-81
2022/11/21 13:48:27;;;;;;;10.00;3.25;;;;;;;7.11;94.42;99673.41;5097723;28;20016;-80
2022/11/21 13:50:58;;;;;;;11.27;3.13;;;;;;;7.08;93.96;99662.09;5098106;28;20034;-80
2022/11/21 13:53:54;;;;;;;17.70;3.88;;;;;;;7.07;95.29;99655.06;5091768;28;20492;-80
2022/11/21 13:56:34;;;;;;;13.75;3.75;;;;;;;7.05;94.00;99649.00;5086786;28;20174;-80
2022/11/21 13:59:15;;;;;;;16.38;3.15;;;;;;;7.03;94.40;99645.56;5087808;28;20021;-80
2022/11/21 14:02:18;;;;;;;18.58;4.25;;;;;;;7.05;95.03;99638.31;5094025;28;20039;-81
2022/11/21 14:05:14;;;;;;;12.40;3.10;;;;;;;7.05;94.26;99646.31;5083474;28;20043;-81
2022/11/21 14:07:41;;;;;;;12.25;3.45;;;;;;;7.05;93.84;99622.28;5054907;28;20028;-81
2022/11/21 14:10:24;;;;;;;15.65;4.30;;;;;;;7.06;95.56;99616.81;5058531;28;20502;-81
2022/11/21 14:12:51;;;;;;;15.93;3.92;;;;;;;7.04;95.72;99618.75;5048477;28;20021;-81
2022/11/21 14:15:41;;;;;;;16.42;3.78;;;;;;;7.06;96.99;99608.81;5064798;28;20045;-81
2022/11/21 14:18:19;;;;;;;13.73;3.88;;;;;;;7.03;95.01;99598.34;5067910;28;20097;-81
2022/11/21 14:20:49;;;;;;;15.43;4.43;;;;;;;7.03;94.25;99602.84;5051871;28;20031;-81
2022/11/21 14:23:17;;;;;;;14.73;4.07;;;;;;;7.00;94.37;99596.78;5064662;28;20036;-81
2022/11/21 14:25:49;;;;;;;11.20;3.72;;;;;;;7.00;94.62;99596.78;5072730;28;20098;-81
2022/11/21 14:28:30;;;;;;;13.82;3.95;;;;;;;7.01;95.02;99594.94;5060179;28;20039;-81
2022/11/21 14:31:07;;;;;;;17.27;4.03;;;;;;;7.00;95.59;99590.59;5050198;28;20044;-81
2022/11/21 14:33:37;;;;;;;11.77;3.33;;;;;;;6.99;95.33;99581.69;5051100;28;20032;-81
2022/11/21 14:36:12;;;;;;;11.98;3.88;;;;;;;7.00;95.72;99574.56;5063420;28;20064;-81
2022/11/21 14:38:47;;;;;;;15.93;4.07;;;;;;;7.00;95.60;99579.91;5061864;28;20044;-81
2022/11/21 14:41:24;;;;;;;15.85;3.78;;;;;;;7.00;96.39;99569.22;5062192;28;20044;-81
2022/11/21 14:44:02;;;;;;;15.55;4.55;;;;;;;6.99;96.46;99563.00;5054236;28;20092;-81
2022/11/21 14:46:36;;;;;;;17.77;4.32;;;;;;;7.00;97.00;99559.38;5078212;28;20557;-81
2022/11/21 14:49:17;;;;;;;12.35;3.90;;;;;;;7.00;97.18;99553.19;5060550;28;20498;-81
2022/11/21 14:52:01;;;;;;;15.32;4.18;;;;;;;7.02;97.38;99545.06;5065630;28;20027;-81
2022/11/21 14:54:33;;;;;;;17.67;4.28;;;;;;;7.00;96.66;99538.00;5059935;28;20538;-81
2022/11/21 14:57:06;;;;;;;14.20;3.85;;;;;;;6.99;96.66;99544.31;5052175;28;20377;-80
2022/11/21 14:59:38;;;;;;;15.63;4.20;;;;;;;6.97;95.99;99535.56;5056532;28;20358;-81
2022/11/21 15:02:13;;;;;;;17.23;4.25;;;;;;;6.97;96.63;99527.56;5052562;28;20098;-81
2022/11/21 15:04:41;;;;;;;16.35;5.35;;;;;;;6.96;95.97;99515.16;5047809;28;20451;-81
2022/11/21 15:07:26;;;;;;;15.32;3.80;;;;;;;6.95;96.45;99507.28;5051776;28;20025;-81
2022/11/21 15:09:51;;;;;;;25.63;9.52;;;;;;;6.96;96.98;99501.81;5058193;28;20032;-74
2022/11/21 15:12:29;;;;;;;19.20;5.13;;;;;;;6.95;96.65;99499.28;5057647;28;20021;-81
2022/11/21 15:15:23;;;;;;;11.45;4.10;;;;;;;6.96;97.48;99500.97;5067886;28;20070;-80
2022/11/21 15:17:55;;;;;;;16.95;3.92;;;;;;;6.93;97.87;99496.72;5052268;28;20040;-81
2022/11/21 15:20:21;;;;;;;13.77;4.47;;;;;;;6.92;97.01;99492.34;5050321;28;20082;-80
2022/11/21 15:22:49;;;;;;;14.30;4.53;;;;;;;6.91;96.98;99487.13;5046284;28;20092;-82
2022/11/21 15:25:21;;;;;;;17.33;3.97;;;;;;;6.91;97.74;99481.78;5043738;28;20488;-80
2022/11/21 15:27:48;;;;;;;19.52;3.90;;;;;;;6.91;97.45;99477.31;5049990;28;20022;-81
2022/11/21 15:30:13;;;;;;;14.73;4.20;;;;;;;6.91;97.62;99463.09;5051998;28;20471;-81
2022/11/21 15:32:57;;;;;;;20.63;4.15;;;;;;;6.94;97.30;99454.81;5055402;28;20028;-81
2022/11/21 15:35:50;;;;;;;14.68;4.22;;;;;;;6.94;97.69;99431.66;5054424;28;20373;-81
2022/11/21 15:38:43;;;;;;;20.30;4.50;;;;;;;6.92;97.44;99424.72;5052729;28;20409;-80
2022/11/21 15:41:08;;;;;;;16.83;4.55;;;;;;;6.90;96.81;99426.69;5033437;28;20022;-81
2022/11/21 15:43:33;;;;;;;15.82;4.85;;;;;;;6.89;97.62;99433.84;5049817;28;20707;-81
2022/11/21 15:46:19;;;;;;;20.48;5.25;;;;;;;6.90;97.57;99421.34;5047473;28;20108;-81
2022/11/21 15:48:59;;;;;;;15.63;4.75;;;;;;;6.89;97.44;99424.97;5040988;28;20022;-80
2022/11/21 15:51:25;;;;;;;18.00;4.80;;;;;;;6.89;97.50;99416.97;5054704;28;20488;-81
2022/11/21 15:53:51;;;;;;;14.05;4.10;;;;;;;6.88;97.74;99413.47;5036694;28;20021;-81
2022/11/21 15:56:18;;;;;;;16.17;4.32;;;;;;;6.88;97.19;99420.59;5050188;28;20168;-80
2022/11/21 15:58:45;;;;;;;16.80;5.03;;;;;;;6.87;97.72;99418.91;5044595;28;20150;-81
2022/11/21 16:01:19;;;;;;;16.88;5.25;;;;;;;6.88;97.43;99417.94;5050348;28;20036;-81
2022/11/21 16:03:46;;;;;;;12.82;3.92;;;;;;;6.89;97.55;99407.13;5050397;28;20029;-80
2022/11/21 16:06:12;;;;;;;15.75;4.13;;;;;;;6.88;96.32;99420.59;5050966;28;20119;-81
2022/11/21 16:08:37;;;;;;;15.52;4.28;;;;;;;6.87;96.42;99411.75;5051144;28;20094;-81
2022/11/21 16:11:03;;;;;;;15.23;4.40;;;;;;;6.87;96.87;99403.75;5049843;28;20405;-81
2022/11/21 16:13:28;;;;;;;19.75;5.00;;;;;;;6.88;97.35;99404.59;5046220;28;20043;-81
2022/11/21 16:15:53;;;;;;;20.23;4.93;;;;;;;6.90;96.96;99397.31;5047072;28;20039;-82
2022/11/21 16:18:19;;;;;;;14.82;4.88;;;;;;;6.90;97.47;99390.13;5048620;28;20025;-81
2022/11/21 16:20:44;;;;;;;21.00;6.82;;;;;;;6.90;96.91;99389.31;5047090;28;20476;-81
2022/11/21 16:23:10;;;;;;;22.13;5.18;;;;;;;6.89;96.13;99383.09;5048423;28;20104;-81
2022/11/21 16:25:36;;;;;;;14.00;4.43;;;;;;;6.91;96.64;99382.97;5061494;28;20020;-81
2022/11/21 16:28:02;;;;;;;17.95;4.55;;;;;;;6.91;96.03;99380.28;5045491;28;20048;-81
2022/11/21 16:30:27;;;;;;;17.80;4.47;;;;;;;6.92;96.02;99374.81;5039041;28;20044;-81
2022/11/21 16:32:55;;;;;;;18.42;4.38;;;;;;;6.92;96.03;99366.81;5053118;28;20025;-81
2022/11/21 16:35:21;;;;;;;14.93;4.28;;;;;;;6.92;95.67;99360.63;5050610;28;20044;-81
2022/11/21 16:37:46;;;;;;;19.90;4.45;;;;;;;6.92;95.91;99355.28;5051092;28;20029;-81
2022/11/21 16:40:11;;;;;;;17.70;5.07;;;;;;;6.91;97.29;99348.25;5049229;28;20083;-81
2022/11/21 16:42:37;;;;;;;17.05;4.05;;;;;;;6.90;95.86;99343.91;5052308;28;20462;-81
2022/11/21 16:45:02;;;;;;;18.85;4.43;;;;;;;6.90;94.93;99343.91;5042524;28;20033;-82
2022/11/21 16:47:28;;;;;;;17.30;4.97;;;;;;;6.88;95.36;99335.16;5046507;28;20062;-81
2022/11/21 16:49:53;;;;;;;14.88;3.85;;;;;;;6.87;95.55;99330.78;5051236;28;20049;-81
2022/11/21 16:52:18;;;;;;;13.23;4.43;;;;;;;6.86;95.68;99327.25;5053849;28;20449;-81
2022/11/21 16:54:43;;;;;;;15.95;4.53;;;;;;;6.85;95.51;99320.22;5052124;28;20021;-81
2022/11/21 16:57:09;;;;;;;18.27;4.60;;;;;;;6.86;95.64;99311.25;5051223;28;20033;-81
2022/11/21 16:59:34;;;;;;;15.48;4.53;;;;;;;6.86;95.18;99315.75;5051128;28;20055;-81
2022/11/21 17:01:59;;;;;;;13.77;4.45;;;;;;;6.84;95.58;99302.53;5042809;28;20132;-81
2022/11/21 17:04:25;;;;;;;17.70;4.75;;;;;;;6.85;96.11;99298.00;5046142;28;20036;-81
2022/11/21 17:06:50;;;;;;;20.17;4.10;;;;;;;6.84;95.89;99286.50;5048237;28;20048;-81
2022/11/21 17:09:15;;;;;;;11.88;4.03;;;;;;;6.84;95.53;99286.50;5048613;28;20043;-82
2022/11/21 17:11:41;;;;;;;18.25;4.78;;;;;;;6.82;95.38;99283.97;5047307;28;20043;-82
2022/11/21 17:14:07;;;;;;;17.65;4.22;;;;;;;6.82;95.81;99278.63;5044739;28;20421;-81
2022/11/21 17:16:34;;;;;;;19.02;4.93;;;;;;;6.80;95.48;99271.69;5059427;28;20103;-82
2022/11/21 17:19:01;;;;;;;14.50;4.60;;;;;;;6.80;95.03;99271.69;5052309;28;20477;-81
2022/11/21 17:21:28;;;;;;;13.55;4.20;;;;;;;6.80;94.68;99266.34;5050451;28;20029;-82
2022/11/21 17:23:54;;;;;;;14.98;4.93;;;;;;;6.80;94.43;99266.34;5047100;28;20503;-82
2022/11/21 17:26:21;;;;;;;16.15;4.45;;;;;;;6.76;94.48;99254.22;5048987;28;20047;-82
2022/11/21 17:28:54;;;;;;;15.00;4.35;;;;;;;6.76;94.43;99256.91;5045338;28;20041;-81
2022/11/21 17:31:20;;;;;;;18.58;5.32;;;;;;;6.75;94.13;99255.19;5051320;28;20028;-80
2022/11/21 17:33:50;;;;;;;18.52;4.90;;;;;;;6.74;94.63;99253.53;5052033;28;20029;-82
2022/11/21 17:36:18;;;;;;;16.02;4.90;;;;;;;6.72;94.13;99245.66;5044794;28;20060;-81
2022/11/21 17:38:45;;;;;;;17.42;5.30;;;;;;;6.71;94.45;99245.78;5050942;28;20044;-82
2022/11/21 17:41:11;;;;;;;20.20;5.00;;;;;;;6.70;95.11;99236.91;5050524;28;20505;-81
2022/11/21 17:43:37;;;;;;;20.33;5.60;;;;;;;6.71;94.46;99227.91;5051465;28;20076;-82
2022/11/21 17:46:05;;;;;;;19.52;5.55;;;;;;;6.71;94.21;99227.09;5049741;28;20104;-82
2022/11/21 17:48:34;;;;;;;20.90;5.70;;;;;;;6.70;94.33;99238.72;5046536;28;20067;-82
2022/11/21 17:51:04;;;;;;;18.10;5.70;;;;;;;6.70;94.15;99239.56;5046158;28;20060;-81
2022/11/21 17:53:35;;;;;;;18.70;5.88;;;;;;;6.69;94.28;99237.03;5038865;28;20075;-82
2022/11/21 17:56:03;;;;;;;15.93;5.13;;;;;;;6.71;94.61;99237.75;5067330;28;20039;-82
2022/11/21 17:58:29;;;;;;;16.60;4.88;;;;;;;6.71;94.16;99233.25;5048209;28;20025;-82
2022/11/21 18:00:56;;;;;;;16.92;5.07;;;;;;;6.73;94.15;99228.63;5047834;28;20021;-83
2022/11/21 18:03:22;;;;;;;15.88;5.05;;;;;;;6.74;93.47;99234.84;5050314;28;20021;-81
2022/11/21 18:05:48;;;;;;;17.30;5.45;;;;;;;6.74;93.64;99232.16;5051246;28;20374;-81
2022/11/21 18:08:13;;;;;;;20.30;5.35;;;;;;;6.75;93.78;99228.50;5046912;28;20021;-82
2022/11/21 18:10:38;;;;;;;16.92;5.38;;;;;;;6.74;94.42;99233.00;5047059;28;20112;-82
2022/11/21 18:13:04;;;;;;;17.75;5.80;;;;;;;6.75;95.59;99221.34;5051171;28;20017;-80
2022/11/21 18:15:29;;;;;;;17.58;5.25;;;;;;;6.74;96.35;99205.47;5057493;28;20559;-81
2022/11/21 18:17:54;;;;;;;16.58;5.03;;;;;;;6.72;97.01;99202.06;5050999;28;20021;-81
2022/11/21 18:20:20;;;;;;;19.17;5.15;;;;;;;6.70;97.37;99194.19;5045376;28;20021;-81
2022/11/21 18:22:47;;;;;;;20.02;5.07;;;;;;;6.69;98.40;99180.97;5049345;28;20481;-81
2022/11/21 18:25:13;;;;;;;19.58;6.13;;;;;;;6.67;98.77;99182.94;5045816;28;20029;-80
2022/11/21 18:27:38;;;;;;;19.05;6.20;;;;;;;6.67;99.24;99177.59;5047126;28;20067;-80
2022/11/21 18:30:04;;;;;;;17.10;5.45;;;;;;;6.67;99.31;99177.59;5049156;28;20028;-81
2022/11/21 18:32:29;;;;;;;18.90;6.25;;;;;;;6.67;99.33;99181.09;5052931;28;20111;-81
2022/11/21 18:34:54;;;;;;;19.40;5.65;;;;;;;6.65;98.62;99181.22;5052408;28;20039;-81
2022/11/21 18:37:20;;;;;;;18.85;5.90;;;;;;;6.66;99.55;99182.06;5060232;28;20033;-81
2022/11/21 18:39:45;;;;;;;19.52;6.40;;;;;;;6.64;99.73;99173.34;5067928;28;20032;-80
2022/11/21 18:42:11;;;;;;;19.85;6.32;;;;;;;6.64;99.98;99168.00;5053384;28;20048;-81
2022/11/21 18:44:36;;;;;;;20.30;5.65;;;;;;;6.62;100.00;99170.81;5051771;28;20021;-81
2022/11/21 18:47:02;;;;;;;19.27;6.22;;;;;;;6.63;100.00;99167.16;5048632;28;20082;-81
2022/11/21 18:49:28;;;;;;;17.98;5.80;;;;;;;6.62;100.00;99173.47;5050089;28;20029;-81
2022/11/21 18:51:53;;;;;;;19.75;6.65;;;;;;;6.59;100.00;99162.22;5044175;28;20025;-80
2022/11/21 18:54:18;;;;;;;18.63;5.43;;;;;;;6.57;100.00;99159.66;5041500;28;20043;-81
2022/11/21 18:56:44;;;;;;;20.67;6.75;;;;;;;6.54;100.00;99162.59;5051914;28;20033;-81
2022/11/21 18:59:09;;;;;;;17.95;5.65;;;;;;;6.51;100.00;99154.00;5050714;28;20469;-79
2022/11/21 19:01:36;;;;;;;17.27;5.65;;;;;;;6.50;100.00;99144.28;5053871;28;20029;-80
2022/11/21 19:04:01;;;;;;;20.40;6.45;;;;;;;6.50;100.00;99145.16;5047701;28;20033;-79
2022/11/21 19:06:27;;;;;;;22.58;6.43;;;;;;;6.47;100.00;99146.25;5050567;28;20389;-79
2022/11/21 19:08:54;;;;;;;19.15;5.70;;;;;;;6.47;100.00;99132.91;5044397;28;20040;-80
2022/11/21 19:11:23;;;;;;;24.85;6.72;;;;;;;6.45;100.00;99126.00;5044573;28;20036;-80
2022/11/21 19:13:48;;;;;;;16.52;6.03;;;;;;;6.42;100.00;99123.59;5052059;28;20098;-80
2022/11/21 19:16:17;;;;;;;16.08;5.38;;;;;;;6.42;100.00;99123.59;5047871;28;20028;-79
2022/11/21 19:18:42;;;;;;;21.30;6.38;;;;;;;6.41;100.00;99127.22;5043547;28;20041;-80
2022/11/21 19:21:10;;;;;;;19.65;6.53;;;;;;;6.38;100.00;99109.66;5050181;28;20017;-80
2022/11/21 19:23:38;;;;;;;22.92;6.65;;;;;;;6.37;100.00;99117.78;5051157;28;20036;-80
2022/11/21 19:26:05;;;;;;;21.17;6.07;;;;;;;6.36;100.00;99121.44;5051140;28;20471;-80
2022/11/21 19:28:34;;;;;;;20.65;7.47;;;;;;;6.35;100.00;99115.25;5052458;28;20349;-80
2022/11/21 19:31:01;;;;;;;19.13;6.70;;;;;;;6.34;100.00;99118.91;5048632;28;20052;-81
2022/11/21 19:33:28;;;;;;;22.02;6.47;;;;;;;6.32;100.00;99112.84;5049754;28;20082;-80
2022/11/21 19:35:59;;;;;;;20.75;6.63;;;;;;;6.30;100.00;99107.63;5050209;28;20056;-80
2022/11/21 19:38:24;;;;;;;24.90;7.55;;;;;;;6.29;100.00;99099.75;5047378;28;20046;-80
2022/11/21 19:43:33;;;;;;;20.58;7.00;;;;;;;6.26;100.00;99100.00;5052416;28;20048;-80
2022/11/21 19:46:02;;;;;;;18.92;6.78;;;;;;;6.26;100.00;99092.84;5048536;28;20028;-80
2022/11/21 19:48:29;;;;;;;23.13;6.50;;;;;;;6.27;100.00;99096.38;5046212;28;20060;-80
2022/11/21 19:50:58;;;;;;;20.77;6.45;;;;;;;6.25;100.00;99096.50;5043811;28;20049;-80
2022/11/21 19:53:25;;;;;;;17.80;5.90;;;;;;;6.24;100.00;99081.47;5045936;28;20531;-80
2022/11/21 19:55:50;;;;;;;22.75;7.60;;;;;;;6.22;100.00;99080.75;5050362;28;20398;-80
2022/11/21 19:58:16;;;;;;;23.38;6.72;;;;;;;6.24;100.00;99075.28;5046697;28;20029;-80
2022/11/21 20:00:41;;;;;;;20.05;6.70;;;;;;;6.23;100.00;99062.91;5047076;28;20031;-80
2022/11/21 20:03:08;;;;;;;19.52;6.40;;;;;;;6.26;100.00;99060.81;5051439;28;20020;-80
2022/11/21 20:05:34;;;;;;;21.73;7.07;;;;;;;6.25;100.00;99050.28;5047774;28;20033;-80
2022/11/21 20:07:59;;;;;;;20.25;7.03;;;;;;;6.23;100.00;99047.75;5046968;28;20127;-80
2022/11/21 20:10:24;;;;;;;19.80;5.72;;;;;;;6.24;100.00;99048.63;5048773;28;20524;-78
2022/11/21 20:12:50;;;;;;;20.73;6.80;;;;;;;6.24;100.00;99048.63;5044375;28;20013;-80
2022/11/21 20:15:15;;;;;;;22.08;7.05;;;;;;;6.22;100.00;99035.41;5047072;28;20032;-80
2022/11/21 20:17:57;;;;;;;19.90;6.60;;;;;;;6.23;100.00;99037.09;5058876;28;20113;-80
2022/11/21 20:20:23;;;;;;;24.42;6.97;;;;;;;6.24;100.00;99037.94;5051325;28;20132;-80
2022/11/21 20:22:48;;;;;;;20.42;5.70;;;;;;;6.25;100.00;99032.47;5052178;28;20026;-80
2022/11/21 20:25:13;;;;;;;18.65;5.63;;;;;;;6.23;100.00;99021.06;5052995;28;20024;-80
2022/11/21 20:27:38;;;;;;;18.60;5.82;;;;;;;6.22;100.00;99013.19;5058426;28;20031;-80
2022/11/21 20:30:04;;;;;;;19.92;6.60;;;;;;;6.20;100.00;99016.00;5052288;28;20024;-80
2022/11/21 20:32:31;;;;;;;20.70;6.18;;;;;;;6.21;100.00;99025.72;5046478;28;20040;-80
2022/11/21 20:34:56;;;;;;;20.38;6.35;;;;;;;6.21;100.00;99017.69;5063483;28;20039;-80
2022/11/21 20:37:21;;;;;;;21.08;6.68;;;;;;;6.22;100.00;99014.06;5049906;28;20478;-79
2022/11/21 20:39:46;;;;;;;18.73;6.00;;;;;;;6.21;100.00;99012.38;5053235;28;20116;-79
2022/11/21 20:42:12;;;;;;;23.10;7.50;;;;;;;6.21;100.00;99012.38;5051777;28;20110;-79
2022/11/21 20:44:37;;;;;;;24.48;6.47;;;;;;;6.22;100.00;99011.41;5050768;28;20009;-80
2022/11/21 20:47:04;;;;;;;21.75;6.47;;;;;;;6.17;100.00;99005.59;5050862;28;20419;-80
2022/11/21 20:49:29;;;;;;;23.33;6.93;;;;;;;6.16;100.00;99006.56;5052216;28;20099;-80
2022/11/21 20:51:55;;;;;;;21.80;7.22;;;;;;;6.17;100.00;99002.94;5051523;28;20148;-80
2022/11/21 20:54:20;;;;;;;19.77;6.15;;;;;;;6.17;100.00;99000.25;5050968;28;20401;-80
2022/11/21 20:56:45;;;;;;;19.63;6.38;;;;;;;6.16;100.00;98995.91;5050760;28;20531;-80
2022/11/21 20:59:11;;;;;;;21.88;6.97;;;;;;;6.17;100.00;99002.09;5050951;28;20033;-79
2022/11/21 21:01:36;;;;;;;19.42;6.13;;;;;;;6.18;100.00;98990.44;5051621;28;20052;-79
2022/11/21 21:04:02;;;;;;;18.60;6.63;;;;;;;6.18;100.00;98990.44;5052387;28;20021;-80
2022/11/21 21:06:27;;;;;;;18.23;6.32;;;;;;;6.19;100.00;98990.28;5050737;28;20020;-80
2022/11/21 21:08:52;;;;;;;19.92;5.68;;;;;;;6.18;100.00;98988.63;5051506;28;20021;-80
2022/11/21 21:11:20;;;;;;;19.58;5.85;;;;;;;6.18;100.00;98985.97;5049704;28;20450;-79
2022/11/21 21:13:46;;;;;;;18.73;6.47;;;;;;;6.20;100.00;98983.16;5049536;28;20071;-79
2022/11/21 21:16:20;;;;;;;21.90;6.60;;;;;;;6.20;100.00;98981.31;5047836;28;20052;-80
2022/11/21 21:18:47;;;;;;;17.98;5.80;;;;;;;6.20;100.00;98988.50;5050706;28;20542;-80
2022/11/21 21:21:15;;;;;;;17.35;6.53;;;;;;;6.22;100.00;98981.19;5050484;28;20039;-80
2022/11/21 21:23:44;;;;;;;24.17;6.60;;;;;;;6.22;100.00;98989.19;5052081;28;20024;-80
2022/11/21 21:26:18;;;;;;;22.98;6.40;;;;;;;6.20;100.00;98983.16;5050416;28;20024;-80
2022/11/21 21:28:44;;;;;;;18.05;6.28;;;;;;;6.21;100.00;98984.84;5047703;28;20082;-80
2022/11/21 21:31:12;;;;;;;20.98;6.15;;;;;;;6.20;100.00;98985.81;5045671;28;20022;-80
2022/11/21 21:33:38;;;;;;;19.45;6.38;;;;;;;6.20;100.00;98978.66;5040705;28;20484;-79
2022/11/21 21:36:06;;;;;;;19.35;6.90;;;;;;;6.21;100.00;98980.34;5050353;28;20029;-79
2022/11/21 21:38:35;;;;;;;20.70;6.68;;;;;;;6.21;100.00;98983.03;5038250;28;20470;-80
2022/11/21 21:41:02;;;;;;;18.63;6.35;;;;;;;6.21;100.00;98980.34;5043812;28;20063;-80
2022/11/21 21:43:28;;;;;;;19.58;5.65;;;;;;;6.23;100.00;98977.56;5044435;28;20400;-80
2022/11/21 21:45:53;;;;;;;20.17;7.32;;;;;;;6.21;100.00;98985.69;5038288;28;20037;-80
2022/11/21 21:48:18;;;;;;;21.15;5.85;;;;;;;6.19;100.00;98982.28;5039689;28;20029;-80
2022/11/21 21:50:44;;;;;;;16.52;5.53;;;;;;;6.18;100.00;98975.28;5032612;28;20029;-80
2022/11/21 21:53:09;;;;;;;18.25;5.57;;;;;;;6.16;100.00;98977.22;5037829;28;20500;-80
2022/11/21 21:55:34;;;;;;;19.27;6.05;;;;;;;6.16;100.00;98977.22;5035367;28;20408;-80
2022/11/21 21:57:59;;;;;;;16.90;5.50;;;;;;;6.15;100.00;98970.22;5043434;28;20033;-79
2022/11/21 22:00:25;;;;;;;21.02;6.38;;;;;;;6.15;100.00;98974.69;5050259;28;20032;-78
2022/11/21 22:02:50;;;;;;;17.60;5.82;;;;;;;6.15;100.00;98970.22;5044816;28;20033;-79
2022/11/21 22:05:15;;;;;;;21.73;6.28;;;;;;;6.13;100.00;98966.81;5049247;28;20037;-80
2022/11/21 22:07:40;;;;;;;17.70;5.88;;;;;;;6.11;100.00;98958.13;5049861;28;20495;-80
2022/11/21 22:10:06;;;;;;;18.90;5.45;;;;;;;6.12;100.00;98963.31;5048181;28;20033;-80
2022/11/21 22:13:21;;;;;;;22.75;6.63;;;;;;;6.12;100.00;98959.81;5050233;28;20033;-80
2022/11/21 22:15:46;;;;;;;14.95;5.28;;;;;;;6.11;100.00;98964.28;5044608;28;20048;-80
2022/11/21 22:18:11;;;;;;;21.33;6.55;;;;;;;6.12;100.00;98965.16;5050721;28;20037;-80
2022/11/21 22:20:36;;;;;;;23.40;7.40;;;;;;;6.12;100.00;98962.47;5046890;28;20468;-80
2022/11/21 22:23:02;;;;;;;21.92;8.10;;;;;;;6.14;100.00;98954.34;5049658;28;20033;-80
2022/11/21 22:25:27;;;;;;;26.35;7.43;;;;;;;6.14;100.00;98967.69;5053644;28;20124;-80
2022/11/21 22:27:52;;;;;;;22.30;7.30;;;;;;;6.14;100.00;98967.69;5045218;28;20373;-80
2022/11/21 22:30:20;;;;;;;24.58;6.63;;;;;;;6.12;100.00;98959.81;5052895;28;20048;-80
2022/11/21 22:32:46;;;;;;;20.90;6.70;;;;;;;6.11;100.00;98958.94;5048578;28;20025;-80
2022/11/21 22:35:11;;;;;;;19.90;6.75;;;;;;;6.09;100.00;98960.03;5042371;28;20052;-80
2022/11/21 22:37:37;;;;;;;21.80;6.47;;;;;;;6.10;100.00;98959.09;5048719;28;20119;-80
2022/11/21 22:40:02;;;;;;;20.70;6.53;;;;;;;6.13;100.00;98966.81;5050584;28;20021;-80
2022/11/21 22:42:28;;;;;;;20.08;6.18;;;;;;;6.16;100.00;98958.56;5052901;28;20374;-81
2022/11/21 22:44:53;;;;;;;17.65;6.38;;;;;;;6.16;100.00;98961.22;5043147;28;20115;-80
2022/11/21 22:47:20;;;;;;;20.02;6.53;;;;;;;6.16;100.00;98955.88;5052521;28;20134;-80
2022/11/21 22:49:45;;;;;;;17.27;5.95;;;;;;;6.15;100.00;98953.34;5052439;28;20052;-80
2022/11/21 22:52:10;;;;;;;24.02;7.40;;;;;;;6.16;100.00;98955.88;5049229;28;20033;-80
2022/11/21 22:54:36;;;;;;;16.23;4.80;;;;;;;6.15;100.00;98951.56;5052054;28;20471;-80
2022/11/21 22:57:01;;;;;;;16.05;5.50;;;;;;;6.15;100.00;98956.88;5052349;28;20024;-79
2022/11/21 22:59:26;;;;;;;19.67;5.55;;;;;;;6.16;100.00;98947.88;5053007;28;20112;-80
2022/11/21 23:01:51;;;;;;;15.98;5.18;;;;;;;6.16;100.00;98950.56;5049680;28;20052;-80
2022/11/21 23:04:17;;;;;;;18.27;5.28;;;;;;;6.18;100.00;98953.94;5051779;28;20037;-80
2022/11/21 23:06:42;;;;;;;20.67;5.60;;;;;;;6.19;100.00;98947.63;5052804;28;20020;-80
2022/11/21 23:09:07;;;;;;;16.08;5.40;;;;;;;6.20;100.00;98951.16;5054115;28;20445;-80
2022/11/21 23:11:33;;;;;;;19.65;5.95;;;;;;;6.21;100.00;98951.00;5052023;28;20036;-80
2022/11/21 23:13:58;;;;;;;16.67;5.10;;;;;;;6.20;100.00;98951.97;5044784;28;20037;-80
2022/11/21 23:16:24;;;;;;;17.98;4.78;;;;;;;6.20;100.00;98946.66;5032743;28;20037;-80
2022/11/21 23:18:55;;;;;;;19.35;6.50;;;;;;;6.20;100.00;98951.97;5050958;28;20463;-80
2022/11/21 23:21:20;;;;;;;20.65;6.63;;;;;;;6.18;100.00;98945.94;5052822;28;20025;-80
2022/11/21 23:23:45;;;;;;;23.70;4.90;;;;;;;6.17;100.00;98946.91;5053071;28;20147;-80
2022/11/21 23:26:11;;;;;;;18.77;6.32;;;;;;;6.20;100.00;98948.47;5053924;28;20091;-80
2022/11/21 23:28:36;;;;;;;14.95;5.50;;;;;;;6.21;100.00;98953.69;5052321;28;20448;-80
2022/11/21 23:31:01;;;;;;;20.15;6.30;;;;;;;6.21;100.00;98951.00;5049718;28;20079;-81
2022/11/21 23:33:27;;;;;;;16.65;5.18;;;;;;;6.23;100.00;98945.56;5051900;28;20025;-81
2022/11/21 23:35:52;;;;;;;16.40;5.40;;;;;;;6.24;100.00;98934.75;5047342;28;20040;-80
2022/11/21 23:38:18;;;;;;;16.15;5.07;;;;;;;6.24;100.00;98942.75;5057619;28;20025;-80
2022/11/21 23:40:45;;;;;;;16.95;4.90;;;;;;;6.25;100.00;98938.25;5043061;28;20025;-80
2022/11/21 23:43:11;;;;;;;15.07;5.05;;;;;;;6.28;100.00;98948.66;5050246;28;20044;-80
2022/11/21 23:45:36;;;;;;;20.02;5.80;;;;;;;6.28;100.00;98957.53;5049036;28;20033;-80
2022/11/21 23:48:01;;;;;;;16.88;5.40;;;;;;;6.30;100.00;98947.56;5050819;28;20191;-80
2022/11/21 23:50:29;;;;;;;17.10;5.80;;;;;;;6.33;100.00;98953.63;5052118;28;20384;-80
2022/11/21 23:52:55;;;;;;;15.95;5.13;;;;;;;6.33;100.00;98965.13;5051624;28;20025;-80
2022/11/21 23:55:20;;;;;;;16.65;5.30;;;;;;;6.35;100.00;98955.16;5068907;28;20078;-81
2022/11/21 23:57:47;;;;;;;16.23;5.20;;;;;;;6.37;100.00;98969.22;5050475;28;20036;-81
